createdAt,value
2023-04-01T00:00:31.010Z,42.42
2023-04-01T00:01:31.006Z,42.39
2023-04-01T00:02:31.043Z,42.34
2023-04-01T00:03:31.073Z,42.36
2023-04-01T00:04:31.050Z,42.36
2023-04-01T00:05:31.209Z,42.39
2023-04-01T00:06:30.903Z,42.35
2023-04-01T00:07:31.038Z,42.34
2023-04-01T00:08:30.917Z,42.36
2023-04-01T00:09:30.959Z,42.34
2023-04-01T00:10:30.918Z,42.29
2023-04-01T00:11:30.924Z,42.31
2023-04-01T00:12:30.903Z,42.29
2023-04-01T00:13:30.897Z,42.26
2023-04-01T00:14:30.905Z,42.25
2023-04-01T00:15:31.153Z,42.27
2023-04-01T00:16:30.959Z,42.25
2023-04-01T00:17:30.962Z,42.23
2023-04-01T00:18:30.905Z,42.18
2023-04-01T00:19:30.910Z,42.19
2023-04-01T00:20:30.898Z,42.18
2023-04-01T00:21:30.918Z,42.22
2023-04-01T00:22:30.921Z,42.18
2023-04-01T00:23:30.957Z,42.15
2023-04-01T00:24:30.994Z,42.17
2023-04-01T00:25:31.363Z,42.14
2023-04-01T00:26:31.020Z,42.12
2023-04-01T00:27:31.027Z,42.13
2023-04-01T00:28:31.080Z,42.12
2023-04-01T00:29:31.056Z,42.10
2023-04-01T00:30:31.069Z,42.14
2023-04-01T00:31:31.117Z,42.14
2023-04-01T00:32:31.091Z,42.13
2023-04-01T00:33:31.045Z,42.12
2023-04-01T00:34:31.046Z,42.07
2023-04-01T00:35:31.202Z,42.10
2023-04-01T00:36:31.036Z,42.06
2023-04-01T00:37:31.016Z,42.06
2023-04-01T00:38:31.035Z,42.02
2023-04-01T00:39:31.066Z,42.02
2023-04-01T00:40:31.073Z,42.02
2023-04-01T00:41:31.078Z,42.01
2023-04-01T00:42:31.105Z,42.02
2023-04-01T00:43:31.127Z,42.01
2023-04-01T00:44:31.128Z,42.01
2023-04-01T00:45:31.399Z,42.00
2023-04-01T00:46:31.147Z,42.01
2023-04-01T00:47:31.194Z,41.97
2023-04-01T00:48:31.146Z,41.98
2023-04-01T00:49:31.136Z,41.93
2023-04-01T00:50:31.122Z,41.92
2023-04-01T00:51:31.115Z,41.88
2023-04-01T00:52:31.119Z,41.93
2023-04-01T00:53:31.134Z,41.89
2023-04-01T00:54:31.150Z,41.92
2023-04-01T00:55:31.316Z,41.90
2023-04-01T00:56:31.130Z,41.88
2023-04-01T00:57:31.238Z,41.90
2023-04-01T00:58:31.144Z,41.87
2023-04-01T00:59:31.176Z,41.89
2023-04-01T01:00:31.142Z,41.82
2023-04-01T01:01:31.159Z,41.80
2023-04-01T01:02:31.216Z,41.80
2023-04-01T01:03:32.087Z,41.82
2023-04-01T01:04:31.074Z,41.82
2023-04-01T01:05:34.212Z,41.80
2023-04-01T01:06:31.025Z,41.82
2023-04-01T01:07:30.993Z,41.76
2023-04-01T01:08:30.994Z,41.76
2023-04-01T01:09:31.039Z,41.72
2023-04-01T01:10:30.965Z,41.72
2023-04-01T01:12:31.013Z,41.76
2023-04-01T01:13:31.000Z,41.71
2023-04-01T01:14:30.998Z,41.67
2023-04-01T01:15:31.201Z,41.69
2023-04-01T01:16:31.039Z,41.69
2023-04-01T01:17:31.004Z,41.66
2023-04-01T01:18:31.005Z,41.63
2023-04-01T01:19:30.986Z,41.64
2023-04-01T01:20:30.984Z,41.62
2023-04-01T01:21:31.030Z,41.64
2023-04-01T01:22:31.040Z,41.64
2023-04-01T01:23:31.071Z,41.60
2023-04-01T01:24:31.124Z,41.60
2023-04-01T01:25:31.233Z,41.59
2023-04-01T01:26:31.107Z,41.55
2023-04-01T01:27:31.090Z,41.56
2023-04-01T01:28:31.095Z,41.56
2023-04-01T01:29:31.090Z,41.52
2023-04-01T01:30:31.089Z,41.49
2023-04-01T01:31:31.071Z,41.54
2023-04-01T01:32:31.096Z,41.53
2023-04-01T01:33:31.034Z,41.56
2023-04-01T01:34:31.054Z,41.51
2023-04-01T01:35:31.287Z,41.47
2023-04-01T01:36:31.048Z,41.51
2023-04-01T01:37:31.014Z,41.51
2023-04-01T01:38:30.998Z,41.48
2023-04-01T01:39:31.037Z,41.47
2023-04-01T01:40:31.039Z,41.46
2023-04-01T01:41:31.038Z,41.43
2023-04-01T01:42:31.025Z,41.44
2023-04-01T01:43:31.030Z,41.44
2023-04-01T01:44:31.006Z,41.43
2023-04-01T01:45:31.127Z,41.44
2023-04-01T01:46:30.966Z,41.42
2023-04-01T01:47:30.982Z,41.41
2023-04-01T01:48:30.934Z,41.38
2023-04-01T01:49:30.920Z,41.43
2023-04-01T01:50:30.901Z,41.41
2023-04-01T01:51:31.327Z,41.38
2023-04-01T01:52:30.870Z,41.40
2023-04-01T01:53:30.854Z,41.40
2023-04-01T01:54:30.834Z,41.36
2023-04-01T01:55:31.003Z,41.35
2023-04-01T01:56:30.800Z,41.32
2023-04-01T01:57:30.842Z,41.36
2023-04-01T01:58:30.795Z,41.37
2023-04-01T01:59:30.783Z,41.35
2023-04-01T02:00:30.765Z,41.36
2023-04-01T02:01:30.779Z,41.35
2023-04-01T02:02:30.748Z,41.36
2023-04-01T02:03:30.710Z,41.33
2023-04-01T02:04:30.722Z,41.32
2023-04-01T02:05:30.889Z,41.33
2023-04-01T02:06:30.678Z,41.33
2023-04-01T02:07:30.656Z,41.35
2023-04-01T02:08:30.643Z,41.35
2023-04-01T02:09:30.624Z,41.27
2023-04-01T02:10:30.610Z,41.28
2023-04-01T02:11:30.600Z,41.29
2023-04-01T02:12:30.581Z,41.24
2023-04-01T02:13:30.556Z,41.31
2023-04-01T02:14:30.576Z,41.27
2023-04-01T02:15:30.798Z,41.23
2023-04-01T02:16:30.688Z,41.26
2023-04-01T02:17:30.559Z,41.24
2023-04-01T02:18:30.498Z,41.22
2023-04-01T02:19:30.495Z,41.24
2023-04-01T02:20:30.470Z,41.26
2023-04-01T02:21:30.461Z,41.21
2023-04-01T02:22:30.432Z,41.23
2023-04-01T02:23:30.407Z,41.19
2023-04-01T02:24:30.397Z,41.23
2023-04-01T02:25:30.503Z,41.19
2023-04-01T02:26:30.372Z,41.19
2023-04-01T02:27:30.342Z,41.16
2023-04-01T02:28:30.333Z,41.18
2023-04-01T02:29:30.314Z,41.15
2023-04-01T02:30:30.299Z,41.18
2023-04-01T02:31:30.354Z,41.22
2023-04-01T02:32:30.298Z,41.16
2023-04-01T02:33:30.260Z,41.16
2023-04-01T02:34:30.291Z,41.16
2023-04-01T02:35:30.432Z,41.17
2023-04-01T02:36:30.302Z,41.11
2023-04-01T02:37:30.259Z,41.12
2023-04-01T02:38:30.257Z,41.15
2023-04-01T02:39:30.258Z,41.10
2023-04-01T02:40:30.246Z,41.10
2023-04-01T02:41:30.225Z,41.09
2023-04-01T02:42:30.222Z,41.08
2023-04-01T02:43:30.192Z,41.10
2023-04-01T02:44:30.175Z,41.06
2023-04-01T02:45:30.179Z,41.12
2023-04-01T02:46:30.174Z,41.08
2023-04-01T02:47:30.159Z,41.04
2023-04-01T02:48:30.107Z,41.13
2023-04-01T02:49:30.109Z,41.06
2023-04-01T02:50:30.086Z,41.00
2023-04-01T02:51:31.098Z,41.07
2023-04-01T02:52:30.061Z,41.02
2023-04-01T02:53:30.043Z,41.06
2023-04-01T02:54:30.836Z,41.05
2023-04-01T02:55:30.021Z,41.04
2023-04-01T02:56:30.002Z,41.06
2023-04-01T02:57:30.148Z,41.04
2023-04-01T02:58:29.986Z,41.03
2023-04-01T02:59:29.983Z,41.00
2023-04-01T03:00:29.962Z,41.01
2023-04-01T03:01:29.974Z,40.96
2023-04-01T03:02:30.041Z,41.01
2023-04-01T03:03:29.965Z,40.99
2023-04-01T03:04:29.923Z,40.99
2023-04-01T03:05:29.940Z,41.00
2023-04-01T03:06:29.932Z,40.95
2023-04-01T03:07:29.909Z,40.93
2023-04-01T03:08:29.891Z,40.96
2023-04-01T03:09:30.347Z,40.92
2023-04-01T03:10:29.895Z,40.92
2023-04-01T03:11:29.898Z,40.91
2023-04-01T03:12:29.906Z,40.91
2023-04-01T03:13:29.883Z,40.87
2023-04-01T03:14:29.887Z,40.91
2023-04-01T03:15:29.879Z,40.91
2023-04-01T03:16:29.936Z,40.88
2023-04-01T03:17:29.869Z,40.88
2023-04-01T03:18:29.845Z,40.90
2023-04-01T03:19:29.821Z,40.87
2023-04-01T03:20:29.807Z,40.83
2023-04-01T03:21:29.809Z,40.87
2023-04-01T03:22:29.796Z,40.81
2023-04-01T03:23:29.780Z,40.82
2023-04-01T03:24:29.784Z,40.79
2023-04-01T03:25:29.755Z,40.74
2023-04-01T03:26:29.783Z,40.81
2023-04-01T03:27:29.747Z,40.75
2023-04-01T03:28:29.735Z,40.78
2023-04-01T03:29:29.740Z,40.79
2023-04-01T03:30:29.801Z,40.74
2023-04-01T03:31:29.790Z,40.76
2023-04-01T03:32:29.716Z,40.73
2023-04-01T03:33:29.702Z,40.75
2023-04-01T03:34:29.676Z,40.73
2023-04-01T03:35:29.665Z,40.71
2023-04-01T03:36:29.703Z,40.73
2023-04-01T03:37:29.647Z,40.69
2023-04-01T03:38:29.629Z,40.68
2023-04-01T03:39:29.638Z,40.66
2023-04-01T03:40:29.617Z,40.71
2023-04-01T03:41:29.604Z,40.65
2023-04-01T03:42:29.633Z,40.70
2023-04-01T03:43:29.584Z,40.65
2023-04-01T03:44:29.585Z,40.67
2023-04-01T03:45:29.616Z,40.67
2023-04-01T03:46:29.580Z,40.66
2023-04-01T03:47:29.566Z,40.62
2023-04-01T03:48:29.528Z,40.66
2023-04-01T03:49:29.530Z,40.62
2023-04-01T03:50:31.065Z,40.63
2023-04-01T03:51:29.494Z,40.62
2023-04-01T03:52:29.490Z,40.55
2023-04-01T03:53:29.472Z,40.61
2023-04-01T03:54:29.496Z,40.58
2023-04-01T03:55:29.469Z,40.57
2023-04-01T03:56:29.459Z,40.58
2023-04-01T03:57:29.568Z,40.55
2023-04-01T03:58:29.444Z,40.53
2023-04-01T03:59:29.427Z,40.54
2023-04-01T04:00:29.431Z,40.50
2023-04-01T04:01:29.412Z,40.51
2023-04-01T04:02:29.486Z,40.50
2023-04-01T04:03:29.581Z,40.54
2023-04-01T04:04:29.408Z,40.54
2023-04-01T04:05:29.379Z,40.51
2023-04-01T04:06:29.383Z,40.52
2023-04-01T04:07:29.372Z,40.52
2023-04-01T04:08:29.348Z,40.51
2023-04-01T04:09:29.352Z,40.49
2023-04-01T04:10:29.333Z,40.45
2023-04-01T04:11:29.345Z,40.44
2023-04-01T04:12:29.390Z,40.46
2023-04-01T04:13:29.323Z,40.47
2023-04-01T04:14:29.341Z,40.45
2023-04-01T04:15:29.307Z,40.46
2023-04-01T04:16:29.550Z,40.45
2023-04-01T04:17:29.321Z,40.45
2023-04-01T04:18:29.290Z,40.44
2023-04-01T04:19:29.305Z,40.39
2023-04-01T04:20:29.279Z,40.41
2023-04-01T04:21:29.288Z,40.37
2023-04-01T04:22:29.264Z,40.42
2023-04-01T04:23:29.262Z,40.39
2023-04-01T04:24:29.247Z,40.38
2023-04-01T04:25:29.254Z,40.38
2023-04-01T04:26:29.241Z,40.33
2023-04-01T04:27:29.243Z,40.34
2023-04-01T04:28:29.218Z,40.34
2023-04-01T04:29:29.212Z,40.32
2023-04-01T04:30:29.206Z,40.32
2023-04-01T04:31:29.225Z,40.36
2023-04-01T04:32:30.057Z,40.34
2023-04-01T04:33:29.181Z,40.29
2023-04-01T04:34:29.189Z,40.30
2023-04-01T04:35:29.200Z,40.30
2023-04-01T04:36:29.163Z,40.29
2023-04-01T04:37:29.153Z,40.28
2023-04-01T04:38:29.136Z,40.26
2023-04-01T04:39:29.130Z,40.28
2023-04-01T04:40:29.123Z,40.26
2023-04-01T04:41:29.126Z,40.26
2023-04-01T04:42:29.113Z,40.28
2023-04-01T04:43:29.105Z,40.25
2023-04-01T04:44:29.095Z,40.25
2023-04-01T04:45:29.081Z,40.24
2023-04-01T04:46:29.090Z,40.25
2023-04-01T04:47:29.155Z,40.26
2023-04-01T04:48:29.062Z,40.21
2023-04-01T04:49:29.073Z,40.25
2023-04-01T04:50:29.064Z,40.22
2023-04-01T04:51:29.058Z,40.22
2023-04-01T04:52:29.051Z,40.21
2023-04-01T04:53:29.876Z,40.21
2023-04-01T04:54:29.048Z,40.22
2023-04-01T04:55:29.015Z,40.21
2023-04-01T04:56:29.029Z,40.21
2023-04-01T04:57:29.036Z,40.21
2023-04-01T04:58:28.990Z,40.21
2023-04-01T04:59:28.993Z,40.16
2023-04-01T05:00:28.984Z,40.15
2023-04-01T05:01:29.045Z,40.13
2023-04-01T05:02:29.053Z,40.14
2023-04-01T05:03:29.058Z,40.17
2023-04-01T05:04:28.934Z,40.18
2023-04-01T05:05:28.930Z,40.17
2023-04-01T05:06:28.923Z,40.14
2023-04-01T05:07:28.919Z,40.19
2023-04-01T05:08:28.915Z,40.15
2023-04-01T05:09:28.918Z,40.13
2023-04-01T05:10:28.905Z,40.16
2023-04-01T05:11:28.918Z,40.15
2023-04-01T05:12:28.908Z,40.11
2023-04-01T05:13:28.880Z,40.09
2023-04-01T05:14:28.896Z,40.06
2023-04-01T05:15:28.895Z,40.07
2023-04-01T05:16:28.908Z,40.08
2023-04-01T05:17:28.944Z,40.08
2023-04-01T05:18:28.886Z,40.04
2023-04-01T05:19:28.876Z,40.04
2023-04-01T05:20:28.903Z,40.06
2023-04-01T05:21:28.882Z,40.07
2023-04-01T05:22:28.869Z,40.03
2023-04-01T05:23:28.850Z,40.00
2023-04-01T05:24:28.853Z,40.05
2023-04-01T05:25:28.839Z,40.06
2023-04-01T05:26:28.837Z,40.03
2023-04-01T05:27:28.831Z,40.04
2023-04-01T05:28:28.806Z,40.00
2023-04-01T05:29:28.804Z,39.96
2023-04-01T05:30:28.811Z,40.00
2023-04-01T05:31:28.878Z,39.97
2023-04-01T05:32:28.833Z,39.96
2023-04-01T05:33:28.764Z,39.96
2023-04-01T05:34:28.770Z,39.98
2023-04-01T05:35:28.796Z,39.95
2023-04-01T05:36:28.762Z,39.95
2023-04-01T05:37:28.745Z,39.96
2023-04-01T05:38:28.747Z,39.93
2023-04-01T05:39:28.740Z,39.92
2023-04-01T05:40:28.744Z,39.92
2023-04-01T05:41:28.736Z,39.94
2023-04-01T05:42:28.745Z,39.91
2023-04-01T05:43:28.724Z,39.92
2023-04-01T05:44:28.729Z,39.87
2023-04-01T05:45:28.739Z,39.91
2023-04-01T05:46:28.795Z,39.91
2023-04-01T05:47:28.757Z,39.88
2023-04-01T05:48:28.734Z,39.91
2023-04-01T05:49:29.022Z,39.88
2023-04-01T05:50:28.731Z,39.87
2023-04-01T05:51:28.720Z,39.87
2023-04-01T05:52:28.748Z,39.81
2023-04-01T05:53:28.718Z,39.85
2023-04-01T05:54:28.736Z,39.85
2023-04-01T05:55:29.397Z,39.81
2023-04-01T05:56:28.719Z,39.86
2023-04-01T05:57:29.446Z,39.79
2023-04-01T05:58:28.717Z,39.81
2023-04-01T05:59:28.707Z,39.80
2023-04-01T06:00:28.740Z,39.78
2023-04-01T06:01:28.711Z,39.76
2023-04-01T06:02:28.774Z,39.80
2023-04-01T06:03:28.742Z,39.78
2023-04-01T06:04:28.748Z,39.81
2023-04-01T06:05:28.703Z,39.78
2023-04-01T06:06:28.697Z,39.76
2023-04-01T06:07:28.693Z,39.74
2023-04-01T06:08:28.690Z,39.74
2023-04-01T06:09:28.690Z,39.75
2023-04-01T06:10:28.707Z,39.74
2023-04-01T06:11:28.694Z,39.74
2023-04-01T06:12:28.692Z,39.72
2023-04-01T06:13:28.660Z,39.74
2023-04-01T06:14:28.674Z,39.75
2023-04-01T06:15:28.673Z,39.74
2023-04-01T06:16:28.714Z,39.74
2023-04-01T06:17:28.716Z,39.66
2023-04-01T06:18:28.660Z,39.68
2023-04-01T06:19:28.665Z,39.63
2023-04-01T06:20:28.663Z,39.71
2023-04-01T06:21:28.681Z,39.66
2023-04-01T06:22:28.667Z,39.63
2023-04-01T06:23:28.647Z,39.66
2023-04-01T06:24:28.646Z,39.65
2023-04-01T06:25:28.662Z,39.63
2023-04-01T06:26:28.649Z,39.62
2023-04-01T06:27:28.685Z,39.66
2023-04-01T06:28:28.684Z,39.60
2023-04-01T06:29:28.646Z,39.62
2023-04-01T06:30:28.652Z,39.62
2023-04-01T06:31:28.735Z,39.62
2023-04-01T06:32:28.691Z,39.60
2023-04-01T06:33:28.631Z,39.62
2023-04-01T06:34:28.640Z,39.58
2023-04-01T06:35:28.643Z,39.58
2023-04-01T06:36:28.704Z,39.58
2023-04-01T06:37:28.633Z,39.57
2023-04-01T06:38:28.693Z,39.53
2023-04-01T06:39:28.621Z,39.54
2023-04-01T06:40:28.608Z,39.52
2023-04-01T06:41:28.618Z,39.52
2023-04-01T06:42:28.601Z,39.47
2023-04-01T06:43:28.611Z,39.53
2023-04-01T06:44:28.593Z,39.49
2023-04-01T06:45:28.655Z,39.47
2023-04-01T06:46:28.687Z,39.47
2023-04-01T06:47:28.604Z,39.47
2023-04-01T06:48:28.597Z,39.47
2023-04-01T06:49:28.591Z,39.47
2023-04-01T06:50:28.589Z,39.42
2023-04-01T06:51:28.573Z,39.38
2023-04-01T06:52:28.572Z,39.43
2023-04-01T06:53:28.920Z,39.41
2023-04-01T06:54:28.576Z,39.40
2023-04-01T06:55:28.577Z,39.38
2023-04-01T06:56:28.570Z,39.35
2023-04-01T06:57:28.601Z,39.38
2023-04-01T06:58:28.567Z,39.38
2023-04-01T06:59:28.560Z,39.37
2023-04-01T07:00:28.557Z,39.38
2023-04-01T07:01:28.641Z,39.31
2023-04-01T07:02:28.840Z,39.31
2023-04-01T07:03:28.548Z,39.30
2023-04-01T07:04:28.597Z,39.32
2023-04-01T07:05:28.552Z,39.27
2023-04-01T07:06:28.548Z,39.23
2023-04-01T07:07:28.547Z,39.25
2023-04-01T07:08:28.557Z,39.24
2023-04-01T07:09:28.552Z,39.27
2023-04-01T07:10:28.556Z,39.26
2023-04-01T07:11:28.537Z,39.23
2023-04-01T07:12:28.542Z,39.23
2023-04-01T07:13:28.538Z,39.18
2023-04-01T07:14:28.528Z,39.13
2023-04-01T07:15:28.527Z,39.15
2023-04-01T07:16:28.532Z,39.16
2023-04-01T07:17:28.541Z,39.14
2023-04-01T07:18:28.516Z,39.14
2023-04-01T07:19:28.504Z,39.13
2023-04-01T07:20:28.518Z,39.13
2023-04-01T07:21:28.513Z,39.11
2023-04-01T07:22:28.500Z,39.14
2023-04-01T07:23:28.511Z,39.16
2023-04-01T07:24:28.485Z,39.14
2023-04-01T07:25:28.489Z,39.16
2023-04-01T07:26:28.488Z,39.09
2023-04-01T07:27:28.472Z,39.11
2023-04-01T07:28:28.472Z,39.14
2023-04-01T07:29:30.470Z,39.11
2023-04-01T07:30:28.464Z,39.06
2023-04-01T07:31:28.483Z,39.06
2023-04-01T07:32:28.519Z,39.08
2023-04-01T07:33:28.458Z,39.04
2023-04-01T07:34:28.447Z,39.03
2023-04-01T07:35:28.433Z,39.01
2023-04-01T07:36:28.424Z,39.04
2023-04-01T07:37:28.429Z,39.08
2023-04-01T07:38:28.477Z,39.03
2023-04-01T07:39:28.429Z,38.98
2023-04-01T07:40:28.438Z,39.04
2023-04-01T07:41:28.405Z,39.05
2023-04-01T07:42:28.406Z,39.04
2023-04-01T07:43:28.417Z,39.05
2023-04-01T07:44:28.406Z,39.00
2023-04-01T07:45:28.402Z,39.00
2023-04-01T07:46:28.393Z,39.03
2023-04-01T07:47:28.407Z,39.00
2023-04-01T07:48:28.382Z,39.03
2023-04-01T07:49:28.376Z,39.00
2023-04-01T07:50:28.439Z,38.99
2023-04-01T07:51:28.368Z,38.98
2023-04-01T07:52:28.372Z,38.92
2023-04-01T07:53:28.359Z,38.99
2023-04-01T07:54:28.367Z,38.95
2023-04-01T07:55:28.367Z,38.94
2023-04-01T07:56:28.370Z,38.93
2023-04-01T07:57:28.435Z,38.91
2023-04-01T07:58:28.361Z,38.89
2023-04-01T07:59:28.346Z,38.88
2023-04-01T08:00:28.349Z,38.86
2023-04-01T08:01:28.340Z,38.87
2023-04-01T08:02:28.402Z,38.83
2023-04-01T08:03:28.440Z,38.87
2023-04-01T08:04:28.361Z,38.84
2023-04-01T08:05:28.347Z,38.83
2023-04-01T08:06:28.351Z,38.82
2023-04-01T08:07:28.340Z,38.86
2023-04-01T08:08:28.347Z,38.83
2023-04-01T08:09:28.327Z,38.85
2023-04-01T08:10:32.956Z,38.82
2023-04-01T08:11:28.318Z,38.81
2023-04-01T08:12:28.371Z,38.84
2023-04-01T08:13:28.293Z,38.75
2023-04-01T08:14:28.940Z,38.76
2023-04-01T08:15:28.359Z,38.71
2023-04-01T08:16:28.244Z,38.71
2023-04-01T08:17:28.242Z,38.72
2023-04-01T08:18:28.190Z,38.70
2023-04-01T08:19:28.166Z,38.68
2023-04-01T08:20:28.154Z,38.71
2023-04-01T08:21:28.125Z,38.73
2023-04-01T08:22:28.106Z,38.68
2023-04-01T08:23:28.078Z,38.67
2023-04-01T08:24:34.334Z,38.67
2023-04-01T08:25:29.040Z,38.67
2023-04-01T08:26:28.006Z,38.63
2023-04-01T08:27:28.002Z,38.67
2023-04-01T08:28:27.975Z,38.59
2023-04-01T08:29:27.956Z,38.59
2023-04-01T08:30:27.938Z,38.60
2023-04-01T08:31:27.928Z,38.59
2023-04-01T08:32:27.900Z,38.61
2023-04-01T08:33:27.871Z,38.57
2023-04-01T08:34:27.850Z,38.57
2023-04-01T08:35:28.887Z,38.50
2023-04-01T08:36:27.825Z,38.52
2023-04-01T08:37:27.779Z,38.49
2023-04-01T08:38:27.760Z,38.50
2023-04-01T08:39:27.748Z,38.50
2023-04-01T08:40:27.717Z,38.45
2023-04-01T08:41:27.703Z,38.48
2023-04-01T08:42:27.664Z,38.46
2023-04-01T08:43:27.651Z,38.48
2023-04-01T08:44:27.682Z,38.43
2023-04-01T08:45:27.667Z,38.42
2023-04-01T08:46:27.605Z,38.45
2023-04-01T08:47:27.633Z,38.39
2023-04-01T08:48:27.543Z,38.43
2023-04-01T08:49:27.528Z,38.39
2023-04-01T08:50:27.493Z,38.37
2023-04-01T08:51:27.487Z,38.35
2023-04-01T08:52:27.473Z,38.36
2023-04-01T08:53:27.430Z,38.36
2023-04-01T08:54:27.404Z,38.40
2023-04-01T08:55:27.395Z,38.37
2023-04-01T08:56:27.359Z,38.35
2023-04-01T08:57:27.408Z,38.28
2023-04-01T08:58:27.298Z,38.32
2023-04-01T08:59:27.275Z,38.31
2023-04-01T09:00:27.263Z,38.27
2023-04-01T09:01:27.240Z,38.28
2023-04-01T09:02:27.333Z,38.29
2023-04-01T09:03:27.260Z,38.24
2023-04-01T09:04:27.260Z,38.27
2023-04-01T09:05:27.181Z,38.24
2023-04-01T09:06:27.186Z,38.27
2023-04-01T09:07:27.175Z,38.22
2023-04-01T09:08:27.178Z,38.26
2023-04-01T09:09:27.180Z,38.22
2023-04-01T09:10:27.146Z,38.23
2023-04-01T09:11:27.179Z,38.18
2023-04-01T09:12:27.124Z,38.19
2023-04-01T09:13:27.114Z,38.21
2023-04-01T09:14:27.098Z,38.14
2023-04-01T09:15:27.082Z,38.10
2023-04-01T09:16:27.139Z,38.17
2023-04-01T09:17:27.089Z,38.16
2023-04-01T09:18:27.038Z,38.14
2023-04-01T09:19:27.075Z,38.15
2023-04-01T09:20:27.006Z,38.10
2023-04-01T09:21:27.004Z,38.08
2023-04-01T09:22:27.002Z,38.10
2023-04-01T09:23:26.976Z,38.14
2023-04-01T09:24:26.994Z,38.11
2023-04-01T09:25:26.981Z,38.11
2023-04-01T09:26:26.940Z,38.10
2023-04-01T09:27:26.922Z,38.06
2023-04-01T09:28:26.909Z,38.09
2023-04-01T09:29:26.947Z,38.02
2023-04-01T09:30:26.879Z,38.04
2023-04-01T09:31:26.920Z,38.00
2023-04-01T09:32:26.908Z,38.05
2023-04-01T09:33:26.868Z,38.02
2023-04-01T09:34:26.866Z,38.01
2023-04-01T09:35:26.855Z,38.00
2023-04-01T09:36:26.837Z,37.95
2023-04-01T09:37:26.810Z,37.96
2023-04-01T09:38:26.796Z,37.97
2023-04-01T09:39:26.791Z,37.96
2023-04-01T09:40:26.778Z,37.93
2023-04-01T09:41:26.769Z,37.95
2023-04-01T09:42:26.756Z,37.94
2023-04-01T09:43:26.737Z,37.95
2023-04-01T09:44:26.732Z,37.90
2023-04-01T09:45:26.708Z,37.88
2023-04-01T09:46:26.712Z,37.86
2023-04-01T09:47:26.713Z,37.84
2023-04-01T09:48:26.660Z,37.86
2023-04-01T09:49:26.652Z,37.81
2023-04-01T09:50:26.643Z,37.83
2023-04-01T09:51:26.642Z,37.78
2023-04-01T09:52:26.629Z,37.81
2023-04-01T09:53:26.631Z,37.75
2023-04-01T09:54:26.630Z,37.74
2023-04-01T09:55:26.630Z,37.68
2023-04-01T09:56:26.597Z,37.68
2023-04-01T09:57:26.683Z,37.69
2023-04-01T09:58:26.560Z,37.72
2023-04-01T09:59:26.530Z,37.68
2023-04-01T10:00:26.534Z,37.68
2023-04-01T10:01:26.544Z,37.68
2023-04-01T10:02:26.548Z,37.60
2023-04-01T10:03:28.388Z,37.66
2023-04-01T10:04:26.461Z,37.64
2023-04-01T10:05:26.512Z,37.60
2023-04-01T10:06:26.419Z,37.60
2023-04-01T10:07:26.385Z,37.62
2023-04-01T10:08:26.373Z,37.56
2023-04-01T10:09:26.377Z,37.59
2023-04-01T10:10:26.334Z,37.55
2023-04-01T10:11:26.325Z,37.56
2023-04-01T10:12:26.336Z,37.58
2023-04-01T10:13:26.278Z,37.53
2023-04-01T10:14:26.264Z,37.50
2023-04-01T10:15:26.274Z,37.48
2023-04-01T10:16:26.283Z,37.48
2023-04-01T10:17:26.214Z,37.52
2023-04-01T10:18:26.193Z,37.48
2023-04-01T10:19:26.183Z,37.45
2023-04-01T10:20:26.173Z,37.46
2023-04-01T10:21:26.145Z,37.40
2023-04-01T10:22:26.134Z,37.40
2023-04-01T10:23:26.116Z,37.41
2023-04-01T10:24:26.097Z,37.39
2023-04-01T10:25:26.091Z,37.36
2023-04-01T10:26:26.076Z,37.36
2023-04-01T10:27:26.051Z,37.35
2023-04-01T10:28:26.067Z,37.35
2023-04-01T10:29:26.022Z,37.29
2023-04-01T10:30:25.995Z,37.31
2023-04-01T10:31:25.987Z,37.29
2023-04-01T10:32:25.977Z,37.28
2023-04-01T10:33:25.940Z,37.24
2023-04-01T10:34:25.927Z,37.25
2023-04-01T10:35:25.902Z,37.21
2023-04-01T10:36:25.904Z,37.24
2023-04-01T10:37:25.874Z,37.24
2023-04-01T10:38:26.908Z,37.21
2023-04-01T10:39:25.837Z,37.19
2023-04-01T10:40:25.845Z,37.17
2023-04-01T10:41:25.809Z,37.11
2023-04-01T10:42:25.800Z,37.16
2023-04-01T10:43:25.849Z,37.09
2023-04-01T10:44:26.044Z,37.15
2023-04-01T10:45:25.920Z,37.15
2023-04-01T10:46:26.033Z,37.10
2023-04-01T10:47:26.012Z,37.08
2023-04-01T10:48:25.994Z,37.03
2023-04-01T10:49:25.982Z,37.07
2023-04-01T10:50:26.033Z,37.01
2023-04-01T10:51:26.020Z,37.03
2023-04-01T10:52:26.067Z,36.98
2023-04-01T10:53:26.098Z,36.99
2023-04-01T10:54:26.150Z,36.95
2023-04-01T10:55:26.158Z,36.95
2023-04-01T10:56:26.161Z,36.95
2023-04-01T10:57:26.227Z,36.94
2023-04-01T10:58:26.252Z,36.90
2023-04-01T10:59:26.250Z,36.90
2023-04-01T11:00:26.308Z,36.87
2023-04-01T11:01:26.361Z,36.84
2023-04-01T11:02:26.397Z,36.84
2023-04-01T11:03:26.473Z,36.81
2023-04-01T11:04:26.477Z,36.86
2023-04-01T11:05:26.528Z,36.84
2023-04-01T11:06:26.569Z,36.80
2023-04-01T11:07:26.620Z,36.75
2023-04-01T11:08:26.693Z,36.79
2023-04-01T11:09:26.706Z,36.76
2023-04-01T11:10:26.751Z,36.72
2023-04-01T11:11:26.806Z,36.72
2023-04-01T11:12:26.817Z,36.72
2023-04-01T11:13:26.867Z,36.72
2023-04-01T11:14:26.916Z,36.70
2023-04-01T11:15:26.963Z,36.70
2023-04-01T11:16:27.054Z,36.69
2023-04-01T11:17:27.129Z,36.69
2023-04-01T11:18:27.107Z,36.72
2023-04-01T11:19:27.129Z,36.70
2023-04-01T11:20:27.191Z,36.64
2023-04-01T11:21:27.209Z,36.71
2023-04-01T11:22:27.296Z,36.69
2023-04-01T11:23:27.317Z,36.65
2023-04-01T11:24:27.369Z,36.64
2023-04-01T11:25:27.406Z,36.60
2023-04-01T11:26:27.451Z,36.60
2023-04-01T11:27:27.481Z,36.58
2023-04-01T11:28:27.532Z,36.55
2023-04-01T11:29:27.575Z,36.56
2023-04-01T11:30:27.613Z,36.58
2023-04-01T11:31:27.731Z,36.58
2023-04-01T11:32:27.726Z,36.56
2023-04-01T11:33:27.740Z,36.52
2023-04-01T11:34:27.769Z,36.55
2023-04-01T11:35:27.828Z,36.52
2023-04-01T11:36:27.910Z,36.54
2023-04-01T11:37:27.905Z,36.54
2023-04-01T11:38:27.948Z,36.52
2023-04-01T11:39:27.984Z,36.51
2023-04-01T11:40:28.032Z,36.51
2023-04-01T11:41:28.088Z,36.51
2023-04-01T11:42:28.136Z,36.45
2023-04-01T11:43:33.483Z,36.44
2023-04-01T11:44:29.156Z,36.44
2023-04-01T11:45:28.136Z,36.42
2023-04-01T11:46:28.132Z,36.44
2023-04-01T11:47:28.100Z,36.47
2023-04-01T11:48:28.108Z,36.43
2023-04-01T11:49:28.034Z,36.42
2023-04-01T11:50:28.039Z,36.43
2023-04-01T11:51:27.976Z,36.44
2023-04-01T11:52:27.977Z,36.40
2023-04-01T11:53:27.970Z,36.43
2023-04-01T11:54:27.984Z,36.43
2023-04-01T11:55:28.000Z,36.42
2023-04-01T11:56:28.013Z,36.42
2023-04-01T11:57:28.087Z,36.42
2023-04-01T11:58:28.068Z,36.40
2023-04-01T11:59:28.114Z,36.40
2023-04-01T12:00:28.145Z,36.42
2023-04-01T12:01:28.152Z,36.41
2023-04-01T12:02:28.241Z,36.38
2023-04-01T12:03:28.427Z,36.40
2023-04-01T12:04:28.317Z,36.41
2023-04-01T12:05:28.296Z,36.38
2023-04-01T12:06:28.291Z,36.41
2023-04-01T12:07:28.367Z,36.38
2023-04-01T12:08:28.344Z,36.42
2023-04-01T12:09:28.383Z,36.38
2023-04-01T12:10:28.425Z,36.39
2023-04-01T12:11:28.444Z,36.37
2023-04-01T12:12:28.455Z,36.44
2023-04-01T12:13:28.541Z,36.39
2023-04-01T12:14:28.506Z,36.41
2023-04-01T12:15:28.518Z,36.37
2023-04-01T12:16:28.591Z,36.41
2023-04-01T12:17:28.522Z,36.39
2023-04-01T12:18:28.488Z,36.43
2023-04-01T12:19:28.488Z,36.38
2023-04-01T12:20:28.499Z,36.38
2023-04-01T12:21:28.504Z,36.38
2023-04-01T12:22:28.494Z,36.43
2023-04-01T12:23:28.517Z,36.43
2023-04-01T12:24:28.542Z,36.39
2023-04-01T12:25:28.510Z,36.40
2023-04-01T12:26:28.544Z,36.39
2023-04-01T12:27:28.512Z,36.43
2023-04-01T12:28:28.543Z,36.42
2023-04-01T12:29:28.578Z,36.39
2023-04-01T12:30:28.576Z,36.40
2023-04-01T12:31:28.628Z,36.43
2023-04-01T12:32:28.614Z,36.39
2023-04-01T12:33:28.599Z,36.37
2023-04-01T12:34:28.617Z,36.43
2023-04-01T12:35:28.642Z,36.41
2023-04-01T12:36:28.634Z,36.39
2023-04-01T12:37:28.597Z,36.38
2023-04-01T12:38:28.606Z,36.35
2023-04-01T12:39:28.597Z,36.36
2023-04-01T12:40:28.603Z,36.41
2023-04-01T12:41:28.602Z,36.32
2023-04-01T12:42:28.606Z,36.39
2023-04-01T12:43:28.600Z,36.36
2023-04-01T12:44:29.529Z,36.38
2023-04-01T12:45:28.612Z,36.34
2023-04-01T12:46:28.770Z,36.36
2023-04-01T12:47:28.674Z,36.37
2023-04-01T12:48:28.632Z,36.36
2023-04-01T12:49:28.657Z,36.32
2023-04-01T12:50:28.687Z,36.26
2023-04-01T12:51:28.704Z,36.35
2023-04-01T12:52:28.672Z,36.36
2023-04-01T12:53:28.651Z,36.31